North New Portland, Maine
Current Conditions -  °F | °C
As of 9:55 AM on Wednesday 22 Oct 2014 (Local Time) from KWVL Reporting Station
Overcast Overcast  
Wind Chill: 38°   Ceiling: 1500
Heat Index: 45°   Visibility: 10mi
Dew Point: 37°   Wind: 13mph
Humidity: 76%   Direction: 30°NNE
Pressure: 30.18"   Gusts: NA
Location:  44.92°N, 70.02°W
Report Text: KWVL 221355Z 03011KT 10SM OVC015 07/03 A3018 RMK AO1 P0001
Loading
Personal Weather Stations






























Interactive Weather Map
Tropical Storm Tracking
New forecast layout! Learn more

10-Day Weather Forecast

Advertisements
Track Severe Weather on mobile